Terminal Aerodrome Forecast
Issued by NWS Charleston, WV

Current Version | Previous Version | Graphics & Text | Print | Product List | Glossary On
Versions: 1 2 3 4 5 6 7 8 9 10 11 12 13 14 15 16 17 18 19 20 21 22 23 24 25
428
FTUS41 KRLX 230925 AAA
TAFCRW
TAF AMD
KCRW 230925Z 2309/2406 04005KT 6SM -RA BKN035 OVC080
     FM231200 02010KT 2SM -RA OVC022
     FM231500 03010G16KT 3SM -RA OVC013
     FM231900 01008KT 3SM -RA OVC010
     FM240100 34006KT 4SM -RA OVC008
     FM240300 34006KT P6SM OVC008=

USA.gov is the U.S. government's official web portal to all federal, state and local government web resources and services.